CEB921 RPMR-RPLL
Flight info
| Callsign | CEB921 |
|---|---|
| Flight time | N/A |
| Altitude | 38000 |
| Route | LATIA4P LATIA W6 LUMVI B473 LAIYA LAIYA3R |
| Aircraft | A339/H-SADE1E2E3GHIJ3J5M1P2RWXY/LB2D1 |
Departure
| Time | N/A |
|---|---|
| Airport | General Santos International Airport (RPMR) |
Arrival
| Time | 2026-05-04 14:17 |
|---|---|
| Airport | Ninoy Aquino International Airport (RPLL) |
| Time | Latitude | Longitude | Altitude | Speed | Heading |
|---|---|---|---|---|---|
| 2026-05-04 12:59 | 8.13595 | 124.66689 | 38127 ft | 476 kts | 349° |
| 2026-05-04 12:59 | 8.20065 | 124.65353 | 38099 ft | 476 kts | 349° |
| 2026-05-04 13:00 | 8.26568 | 124.64008 | 38078 ft | 476 kts | 349° |
| 2026-05-04 13:00 | 8.33070 | 124.62652 | 38048 ft | 476 kts | 348° |
| 2026-05-04 13:01 | 8.39471 | 124.60850 | 38026 ft | 476 kts | 342° |
| 2026-05-04 13:01 | 8.45658 | 124.58345 | 38002 ft | 477 kts | 335° |
| 2026-05-04 13:02 | 8.51529 | 124.55206 | 37982 ft | 478 kts | 330° |
| 2026-05-04 13:02 | 8.57304 | 124.51862 | 37963 ft | 478 kts | 330° |
| 2026-05-04 13:03 | 8.63092 | 124.48508 | 37957 ft | 478 kts | 330° |
| 2026-05-04 13:03 | 8.68838 | 124.45186 | 37947 ft | 477 kts | 330° |
| 2026-05-04 13:04 | 8.74632 | 124.41838 | 37941 ft | 477 kts | 330° |
| 2026-05-04 13:04 | 8.80412 | 124.38499 | 37934 ft | 477 kts | 330° |
| 2026-05-04 13:05 | 8.86178 | 124.35165 | 37930 ft | 477 kts | 330° |
| 2026-05-04 13:05 | 8.91969 | 124.31815 | 37927 ft | 478 kts | 330° |
| 2026-05-04 13:06 | 8.97737 | 124.28477 | 37925 ft | 478 kts | 330° |
| 2026-05-04 13:06 | 9.03486 | 124.25149 | 37925 ft | 478 kts | 330° |
| 2026-05-04 13:07 | 9.09278 | 124.21793 | 37925 ft | 478 kts | 330° |
| 2026-05-04 13:07 | 9.15058 | 124.18441 | 37926 ft | 478 kts | 330° |
| 2026-05-04 13:08 | 9.20855 | 124.15076 | 37927 ft | 478 kts | 330° |
| 2026-05-04 13:08 | 9.26598 | 124.11740 | 37927 ft | 478 kts | 330° |
| 2026-05-04 13:09 | 9.32390 | 124.08375 | 37927 ft | 477 kts | 330° |
| 2026-05-04 13:09 | 9.38156 | 124.05025 | 37930 ft | 478 kts | 330° |
| 2026-05-04 13:10 | 9.43905 | 124.01707 | 37932 ft | 478 kts | 330° |
| 2026-05-04 13:10 | 9.49700 | 123.98363 | 37932 ft | 478 kts | 330° |
| 2026-05-04 13:11 | 9.55494 | 123.95001 | 37936 ft | 478 kts | 330° |
| 2026-05-04 13:11 | 9.61239 | 123.91664 | 37939 ft | 477 kts | 330° |
| 2026-05-04 13:12 | 9.67016 | 123.88306 | 37941 ft | 477 kts | 330° |
| 2026-05-04 13:12 | 9.72765 | 123.84963 | 37945 ft | 477 kts | 330° |
| 2026-05-04 13:13 | 9.78533 | 123.81607 | 37946 ft | 477 kts | 330° |
| 2026-05-04 13:13 | 9.84273 | 123.78266 | 37947 ft | 478 kts | 330° |
| 2026-05-04 13:14 | 9.90063 | 123.74895 | 37947 ft | 478 kts | 330° |
| 2026-05-04 13:14 | 9.95827 | 123.71538 | 37950 ft | 478 kts | 330° |
| 2026-05-04 13:15 | 10.01597 | 123.68174 | 37955 ft | 478 kts | 330° |
| 2026-05-04 13:15 | 10.07380 | 123.64799 | 37959 ft | 477 kts | 330° |
| 2026-05-04 13:16 | 10.13124 | 123.61445 | 37959 ft | 476 kts | 330° |
| 2026-05-04 13:16 | 10.18876 | 123.58085 | 37960 ft | 477 kts | 330° |
| 2026-05-04 13:17 | 10.24620 | 123.54726 | 37957 ft | 477 kts | 330° |
| 2026-05-04 13:17 | 10.30401 | 123.51347 | 37954 ft | 477 kts | 330° |
| 2026-05-04 13:18 | 10.36150 | 123.47998 | 37952 ft | 477 kts | 330° |
| 2026-05-04 13:18 | 10.41931 | 123.44624 | 37964 ft | 477 kts | 330° |
| 2026-05-04 13:19 | 10.47665 | 123.41275 | 37976 ft | 477 kts | 330° |
| 2026-05-04 13:19 | 10.53416 | 123.37915 | 37985 ft | 476 kts | 330° |
| 2026-05-04 13:20 | 10.59170 | 123.34550 | 37995 ft | 476 kts | 330° |
| 2026-05-04 13:20 | 10.64902 | 123.31196 | 38007 ft | 474 kts | 330° |
| 2026-05-04 13:21 | 10.70641 | 123.27844 | 38017 ft | 473 kts | 330° |
| 2026-05-04 13:21 | 10.76328 | 123.24525 | 38024 ft | 471 kts | 329° |
| 2026-05-04 13:22 | 10.82001 | 123.21201 | 38011 ft | 469 kts | 329° |
| 2026-05-04 13:22 | 10.87637 | 123.17890 | 37989 ft | 468 kts | 329° |
| 2026-05-04 13:23 | 10.93303 | 123.14562 | 37968 ft | 469 kts | 330° |
| 2026-05-04 13:23 | 10.98950 | 123.11247 | 37946 ft | 470 kts | 330° |
| 2026-05-04 13:24 | 11.04619 | 123.07923 | 37932 ft | 470 kts | 330° |
| 2026-05-04 13:24 | 11.10313 | 123.04584 | 37927 ft | 470 kts | 330° |
| 2026-05-04 13:25 | 11.18807 | 122.99590 | 37934 ft | 469 kts | 329° |
| 2026-05-04 13:25 | 11.24452 | 122.96269 | 37939 ft | 469 kts | 329° |
| 2026-05-04 13:26 | 11.30119 | 122.92933 | 37944 ft | 469 kts | 329° |
| 2026-05-04 13:26 | 11.35759 | 122.89614 | 37950 ft | 469 kts | 329° |
| 2026-05-04 13:27 | 11.41432 | 122.86276 | 37954 ft | 469 kts | 330° |
| 2026-05-04 13:27 | 11.47062 | 122.82958 | 37956 ft | 469 kts | 329° |
| 2026-05-04 13:28 | 11.52717 | 122.79627 | 37955 ft | 468 kts | 329° |
| 2026-05-04 13:28 | 11.58376 | 122.76286 | 37955 ft | 468 kts | 329° |
| 2026-05-04 13:29 | 11.63873 | 122.72720 | 37958 ft | 469 kts | 326° |
| 2026-05-04 13:29 | 11.69316 | 122.69054 | 37958 ft | 469 kts | 326° |
| 2026-05-04 13:30 | 11.74782 | 122.65368 | 37955 ft | 469 kts | 326° |
| 2026-05-04 13:30 | 11.80206 | 122.61711 | 37949 ft | 469 kts | 326° |
| 2026-05-04 13:31 | 11.85656 | 122.58038 | 37947 ft | 468 kts | 326° |
| 2026-05-04 13:31 | 11.91091 | 122.54373 | 37948 ft | 468 kts | 326° |
| 2026-05-04 13:32 | 11.96503 | 122.50722 | 37946 ft | 468 kts | 326° |
| 2026-05-04 13:32 | 12.01940 | 122.47051 | 37944 ft | 468 kts | 326° |
| 2026-05-04 13:33 | 12.07409 | 122.43360 | 37944 ft | 468 kts | 326° |
| 2026-05-04 13:33 | 12.12820 | 122.39703 | 37946 ft | 469 kts | 326° |
| 2026-05-04 13:34 | 12.18270 | 122.36017 | 37947 ft | 468 kts | 326° |
| 2026-05-04 13:34 | 12.23701 | 122.32343 | 37952 ft | 467 kts | 326° |
| 2026-05-04 13:35 | 12.31822 | 122.26846 | 37956 ft | 467 kts | 326° |
| 2026-05-04 13:35 | 12.34542 | 122.25002 | 37753 ft | 469 kts | 326° |
| 2026-05-04 13:36 | 12.37276 | 122.23148 | 37080 ft | 471 kts | 325° |
| 2026-05-04 13:36 | 12.39979 | 122.21287 | 36377 ft | 472 kts | 325° |
| 2026-05-04 13:36 | 12.42702 | 122.19398 | 35635 ft | 473 kts | 325° |
| 2026-05-04 13:36 | 12.45435 | 122.17499 | 34919 ft | 473 kts | 325° |
| 2026-05-04 13:37 | 12.48157 | 122.15606 | 34253 ft | 473 kts | 325° |
| 2026-05-04 13:37 | 12.50841 | 122.13739 | 33624 ft | 472 kts | 325° |
| 2026-05-04 13:37 | 12.53557 | 122.11849 | 33139 ft | 467 kts | 325° |
| 2026-05-04 13:37 | 12.56242 | 122.09983 | 32769 ft | 461 kts | 325° |
| 2026-05-04 13:38 | 12.58881 | 122.08149 | 32420 ft | 456 kts | 325° |
| 2026-05-04 13:38 | 12.61497 | 122.06329 | 32074 ft | 450 kts | 325° |
| 2026-05-04 13:38 | 12.64070 | 122.04539 | 31721 ft | 446 kts | 325° |
| 2026-05-04 13:38 | 12.66627 | 122.02759 | 31364 ft | 441 kts | 325° |
| 2026-05-04 13:39 | 12.69159 | 122.00995 | 30999 ft | 437 kts | 325° |
| 2026-05-04 13:39 | 12.71641 | 121.99267 | 30614 ft | 434 kts | 326° |
| 2026-05-04 13:39 | 12.74127 | 121.97535 | 30233 ft | 431 kts | 326° |
| 2026-05-04 13:39 | 12.76592 | 121.95818 | 29850 ft | 428 kts | 326° |
| 2026-05-04 13:40 | 12.79049 | 121.94106 | 29454 ft | 426 kts | 326° |
| 2026-05-04 13:40 | 12.81515 | 121.92389 | 29068 ft | 423 kts | 326° |
| 2026-05-04 13:40 | 12.83921 | 121.90713 | 28697 ft | 420 kts | 326° |
| 2026-05-04 13:40 | 12.86346 | 121.89022 | 28325 ft | 418 kts | 326° |
| 2026-05-04 13:41 | 12.88730 | 121.87361 | 27953 ft | 416 kts | 326° |
| 2026-05-04 13:41 | 12.91118 | 121.85696 | 27585 ft | 413 kts | 326° |
| 2026-05-04 13:41 | 12.93481 | 121.84049 | 27220 ft | 411 kts | 326° |
| 2026-05-04 13:42 | 12.98187 | 121.80765 | 26497 ft | 407 kts | 326° |
| 2026-05-04 13:42 | 13.00532 | 121.79129 | 26126 ft | 405 kts | 326° |
| 2026-05-04 13:42 | 13.02879 | 121.77490 | 25748 ft | 403 kts | 326° |
| 2026-05-04 13:42 | 13.05187 | 121.75877 | 25361 ft | 402 kts | 326° |
| 2026-05-04 13:43 | 13.07492 | 121.74268 | 24987 ft | 401 kts | 326° |
| 2026-05-04 13:43 | 13.09789 | 121.72663 | 24623 ft | 399 kts | 326° |
| 2026-05-04 13:43 | 13.12094 | 121.71053 | 24261 ft | 397 kts | 326° |
| 2026-05-04 13:43 | 13.14378 | 121.69456 | 23904 ft | 395 kts | 326° |
| 2026-05-04 13:44 | 13.16637 | 121.67876 | 23548 ft | 394 kts | 326° |
| 2026-05-04 13:44 | 13.18890 | 121.66301 | 23192 ft | 392 kts | 326° |
| 2026-05-04 13:44 | 13.21146 | 121.64723 | 22846 ft | 390 kts | 326° |
| 2026-05-04 13:44 | 13.23363 | 121.63171 | 22504 ft | 388 kts | 326° |
| 2026-05-04 13:45 | 13.25614 | 121.61596 | 22142 ft | 386 kts | 326° |
| 2026-05-04 13:45 | 13.27817 | 121.60054 | 21790 ft | 385 kts | 326° |
| 2026-05-04 13:45 | 13.30036 | 121.58499 | 21464 ft | 382 kts | 327° |
| 2026-05-04 13:45 | 13.32225 | 121.56966 | 21156 ft | 380 kts | 327° |
| 2026-05-04 13:46 | 13.34402 | 121.55441 | 20833 ft | 378 kts | 327° |
| 2026-05-04 13:46 | 13.36566 | 121.53925 | 20498 ft | 376 kts | 327° |
| 2026-05-04 13:46 | 13.38725 | 121.52412 | 20151 ft | 375 kts | 327° |
| 2026-05-04 13:46 | 13.40859 | 121.50916 | 19814 ft | 374 kts | 327° |
| 2026-05-04 13:47 | 13.43030 | 121.49393 | 19460 ft | 372 kts | 327° |
| 2026-05-04 13:47 | 13.45147 | 121.47909 | 19129 ft | 370 kts | 327° |
| 2026-05-04 13:47 | 13.47273 | 121.46417 | 18783 ft | 369 kts | 327° |
| 2026-05-04 13:47 | 13.49394 | 121.44930 | 18451 ft | 367 kts | 327° |
| 2026-05-04 13:48 | 13.51479 | 121.43465 | 18179 ft | 363 kts | 327° |
| 2026-05-04 13:48 | 13.53537 | 121.42019 | 18108 ft | 352 kts | 327° |
| 2026-05-04 13:48 | 13.55535 | 121.40615 | 18086 ft | 340 kts | 327° |
| 2026-05-04 13:48 | 13.57460 | 121.39262 | 18024 ft | 330 kts | 327° |
| 2026-05-04 13:49 | 13.59326 | 121.37897 | 17745 ft | 330 kts | 326° |
| 2026-05-04 13:49 | 13.61183 | 121.36509 | 17441 ft | 329 kts | 326° |
| 2026-05-04 13:49 | 13.63036 | 121.35122 | 17137 ft | 328 kts | 326° |
| 2026-05-04 13:49 | 13.64958 | 121.33853 | 16876 ft | 330 kts | 338° |
| 2026-05-04 13:50 | 13.67133 | 121.33000 | 16640 ft | 332 kts | 344° |
| 2026-05-04 13:50 | 13.69337 | 121.32269 | 16411 ft | 330 kts | 344° |
| 2026-05-04 13:50 | 13.71522 | 121.31538 | 16176 ft | 329 kts | 343° |
| 2026-05-04 13:50 | 13.73685 | 121.30791 | 15950 ft | 327 kts | 343° |
| 2026-05-04 13:51 | 13.75837 | 121.30025 | 15729 ft | 326 kts | 343° |
| 2026-05-04 13:51 | 13.77958 | 121.29257 | 15509 ft | 325 kts | 342° |
| 2026-05-04 13:51 | 13.80107 | 121.28473 | 15293 ft | 323 kts | 342° |
| 2026-05-04 13:51 | 13.82211 | 121.27698 | 15072 ft | 322 kts | 342° |
| 2026-05-04 13:52 | 13.86414 | 121.26144 | 14619 ft | 319 kts | 342° |
| 2026-05-04 13:52 | 13.88513 | 121.25365 | 14398 ft | 318 kts | 342° |
| 2026-05-04 13:52 | 13.90588 | 121.24594 | 14183 ft | 316 kts | 342° |
| 2026-05-04 13:53 | 13.92678 | 121.23818 | 13951 ft | 315 kts | 342° |
| 2026-05-04 13:53 | 13.94731 | 121.23058 | 13725 ft | 313 kts | 342° |
| 2026-05-04 13:53 | 13.96777 | 121.22297 | 13502 ft | 312 kts | 342° |
| 2026-05-04 13:54 | 14.00841 | 121.20787 | 13063 ft | 308 kts | 342° |
| 2026-05-04 13:54 | 14.02880 | 121.20028 | 13008 ft | 308 kts | 342° |
| 2026-05-04 13:54 | 14.06935 | 121.18521 | 12541 ft | 307 kts | 342° |
| 2026-05-04 13:55 | 14.08969 | 121.17764 | 12280 ft | 306 kts | 342° |
| 2026-05-04 13:55 | 14.12944 | 121.16283 | 11782 ft | 303 kts | 342° |
| 2026-05-04 13:55 | 14.14941 | 121.15539 | 11539 ft | 301 kts | 342° |
| 2026-05-04 13:56 | 14.16892 | 121.14814 | 11311 ft | 300 kts | 342° |
| 2026-05-04 13:56 | 14.18857 | 121.14082 | 11067 ft | 299 kts | 342° |
| 2026-05-04 13:56 | 14.22763 | 121.12627 | 10572 ft | 296 kts | 342° |
| 2026-05-04 13:57 | 14.24713 | 121.11900 | 10332 ft | 295 kts | 342° |
| 2026-05-04 13:57 | 14.26646 | 121.11180 | 10101 ft | 294 kts | 342° |
| 2026-05-04 13:58 | 14.31980 | 121.08125 | 9038 ft | 307 kts | 304° |
| 2026-05-04 13:58 | 14.32627 | 121.03823 | 8369 ft | 315 kts | 254° |
| 2026-05-04 13:58 | 14.31724 | 121.01795 | 8090 ft | 314 kts | 240° |
| 2026-05-04 13:59 | 14.30595 | 120.99881 | 7846 ft | 312 kts | 238° |
| 2026-05-04 13:59 | 14.29431 | 120.97993 | 7584 ft | 310 kts | 237° |
| 2026-05-04 13:59 | 14.27132 | 120.94280 | 7110 ft | 304 kts | 237° |
| 2026-05-04 14:00 | 14.26009 | 120.92461 | 7046 ft | 295 kts | 237° |
| 2026-05-04 14:00 | 14.23787 | 120.88866 | 6864 ft | 297 kts | 237° |
| 2026-05-04 14:00 | 14.22685 | 120.87081 | 6690 ft | 296 kts | 237° |
| 2026-05-04 14:01 | 14.21576 | 120.85287 | 6530 ft | 294 kts | 237° |
| 2026-05-04 14:01 | 14.20480 | 120.83518 | 6372 ft | 294 kts | 237° |
| 2026-05-04 14:01 | 14.18289 | 120.79978 | 6056 ft | 293 kts | 237° |
| 2026-05-04 14:02 | 14.17187 | 120.78199 | 6036 ft | 292 kts | 237° |
| 2026-05-04 14:02 | 14.16091 | 120.76424 | 5978 ft | 293 kts | 237° |
| 2026-05-04 14:02 | 14.15000 | 120.74649 | 5841 ft | 293 kts | 237° |
| 2026-05-04 14:02 | 14.13921 | 120.72886 | 5726 ft | 292 kts | 237° |
| 2026-05-04 14:03 | 14.12834 | 120.71104 | 5578 ft | 292 kts | 237° |
| 2026-05-04 14:03 | 14.11753 | 120.69327 | 5448 ft | 291 kts | 237° |
| 2026-05-04 14:03 | 14.10681 | 120.67567 | 5312 ft | 291 kts | 237° |
| 2026-05-04 14:03 | 14.09603 | 120.65797 | 5175 ft | 291 kts | 237° |
| 2026-05-04 14:04 | 14.07455 | 120.62276 | 5027 ft | 290 kts | 237° |
| 2026-05-04 14:04 | 14.06376 | 120.60511 | 5021 ft | 291 kts | 238° |
| 2026-05-04 14:04 | 14.05627 | 120.58609 | 4991 ft | 289 kts | 265° |
| 2026-05-04 14:05 | 14.07215 | 120.55117 | 5009 ft | 277 kts | 331° |
| 2026-05-04 14:05 | 14.09008 | 120.54417 | 5017 ft | 270 kts | 356° |
| 2026-05-04 14:05 | 14.10856 | 120.54523 | 5007 ft | 264 kts | 19° |
| 2026-05-04 14:06 | 14.12481 | 120.55352 | 5008 ft | 261 kts | 36° |
| 2026-05-04 14:06 | 14.13987 | 120.56413 | 5009 ft | 261 kts | 36° |
| 2026-05-04 14:06 | 14.15490 | 120.57460 | 5009 ft | 262 kts | 36° |
| 2026-05-04 14:06 | 14.17025 | 120.58512 | 5016 ft | 262 kts | 36° |
| 2026-05-04 14:07 | 14.18553 | 120.59546 | 5011 ft | 262 kts | 35° |
| 2026-05-04 14:07 | 14.20075 | 120.60569 | 5004 ft | 262 kts | 35° |
| 2026-05-04 14:07 | 14.21608 | 120.61595 | 5001 ft | 262 kts | 35° |
| 2026-05-04 14:07 | 14.23143 | 120.62619 | 4996 ft | 262 kts | 34° |
| 2026-05-04 14:08 | 14.24682 | 120.63644 | 5003 ft | 262 kts | 34° |
| 2026-05-04 14:08 | 14.26212 | 120.64661 | 5023 ft | 262 kts | 34° |
| 2026-05-04 14:08 | 14.27748 | 120.65683 | 5019 ft | 262 kts | 35° |
| 2026-05-04 14:08 | 14.29294 | 120.66711 | 5011 ft | 262 kts | 35° |
| 2026-05-04 14:09 | 14.32256 | 120.68742 | 4962 ft | 240 kts | 43° |
| 2026-05-04 14:09 | 14.33361 | 120.69976 | 4796 ft | 229 kts | 57° |
| 2026-05-04 14:10 | 14.34861 | 120.72808 | 4531 ft | 222 kts | 64° |
| 2026-05-04 14:10 | 14.35552 | 120.74222 | 4391 ft | 219 kts | 63° |
| 2026-05-04 14:10 | 14.36252 | 120.75598 | 4248 ft | 215 kts | 62° |
| 2026-05-04 14:10 | 14.36970 | 120.76954 | 4093 ft | 213 kts | 62° |
| 2026-05-04 14:11 | 14.37684 | 120.78271 | 3943 ft | 210 kts | 61° |
| 2026-05-04 14:11 | 14.39110 | 120.80846 | 3630 ft | 200 kts | 61° |
| 2026-05-04 14:11 | 14.39794 | 120.82068 | 3386 ft | 192 kts | 61° |
| 2026-05-04 14:12 | 14.40429 | 120.83204 | 3327 ft | 176 kts | 61° |
| 2026-05-04 14:12 | 14.41023 | 120.84266 | 3264 ft | 164 kts | 61° |
| 2026-05-04 14:12 | 14.42120 | 120.86230 | 2930 ft | 155 kts | 62° |
| 2026-05-04 14:13 | 14.42652 | 120.87186 | 2725 ft | 149 kts | 61° |
| 2026-05-04 14:13 | 14.43158 | 120.88092 | 2533 ft | 143 kts | 61° |
| 2026-05-04 14:13 | 14.43648 | 120.88974 | 2367 ft | 144 kts | 61° |
| 2026-05-04 14:13 | 14.44152 | 120.89879 | 2196 ft | 143 kts | 61° |
| 2026-05-04 14:14 | 14.44649 | 120.90772 | 2018 ft | 143 kts | 61° |
| 2026-05-04 14:14 | 14.45638 | 120.92552 | 1659 ft | 142 kts | 62° |
| 2026-05-04 14:14 | 14.46126 | 120.93432 | 1484 ft | 142 kts | 61° |
| 2026-05-04 14:15 | 14.47101 | 120.95186 | 1134 ft | 141 kts | 60° |
| 2026-05-04 14:15 | 14.48074 | 120.96935 | 774 ft | 140 kts | 61° |
| 2026-05-04 14:16 | 14.49038 | 120.98677 | 430 ft | 139 kts | 62° |
| 2026-05-04 14:16 | 14.49521 | 120.99547 | 255 ft | 139 kts | 62° |
| 2026-05-04 14:17 | 14.50419 | 121.01160 | 90 ft | 98 kts | 59° |
| 2026-05-04 14:17 | 14.50678 | 121.01621 | 90 ft | 56 kts | 60° |
| 2026-05-04 14:17 | 14.50990 | 121.02160 | 90 ft | 27 kts | 48° |
| 2026-05-04 14:18 | 14.51089 | 121.02257 | 90 ft | 13 kts | 43° |
| 2026-05-04 14:18 | 14.51190 | 121.02271 | 90 ft | 7 kts | 274° |
| 2026-05-04 14:19 | 14.51131 | 121.02151 | 90 ft | 10 kts | 242° |
| 2026-05-04 14:19 | 14.51092 | 121.02078 | 90 ft | 12 kts | 240° |
| 2026-05-04 14:19 | 14.51062 | 121.02010 | 90 ft | 6 kts | 274° |
| 2026-05-04 14:19 | 14.51098 | 121.01959 | 90 ft | 11 kts | 315° |
| 2026-05-04 14:20 | 14.51164 | 121.01893 | 90 ft | 14 kts | 316° |
| 2026-05-04 14:20 | 14.51235 | 121.01820 | 90 ft | 15 kts | 314° |
| 2026-05-04 14:20 | 14.51311 | 121.01739 | 90 ft | 15 kts | 315° |
| 2026-05-04 14:21 | 14.51473 | 121.01572 | 90 ft | 17 kts | 313° |
| 2026-05-04 14:21 | 14.51558 | 121.01483 | 90 ft | 17 kts | 315° |
| 2026-05-04 14:21 | 14.51626 | 121.01414 | 90 ft | 7 kts | 318° |
| 2026-05-04 14:21 | 14.51650 | 121.01417 | 90 ft | 5 kts | 28° |
| 2026-05-04 14:22 | 14.51680 | 121.01444 | 90 ft | 5 kts | 45° |
| 2026-05-04 14:22 | 14.51699 | 121.01464 | 90 ft | 0 kts | 45° |
| 2026-05-04 14:22 | 14.51700 | 121.01465 | 90 ft | 0 kts | 45° |